Time;durP1;ratioP1;P1;durP2;ratioP2;P2;SDS_P1;SDS_P2;PMS_P1;PMS_P2;Temp;Humidity;BMP_temperature;BMP_pressure;BME280_temperature;BME280_humidity;BME280_pressure;Samples;Min_cycle;Max_cycle;Signal;HPM_P1;HPM_P2
2023/02/05 00:01:21;;;;;;;32.50;20.77;;;4.80;99.90;;;;;;5034079;28;20489;-65
2023/02/05 00:03:54;;;;;;;33.17;20.03;;;4.80;93.30;;;;;;5034135;28;20896;-65
2023/02/05 00:06:22;;;;;;;36.03;21.30;;;4.90;97.60;;;;;;5033200;28;20466;-65
2023/02/05 00:08:56;;;;;;;37.97;20.33;;;4.80;95.90;;;;;;5017657;28;20571;-65
2023/02/05 00:11:27;;;;;;;38.53;21.10;;;4.80;32.70;;;;;;5032762;28;20847;-65
2023/02/05 00:13:56;;;;;;;29.73;18.63;;;4.80;17.90;;;;;;5034211;28;20966;-65
2023/02/05 00:16:25;;;;;;;34.53;19.50;;;4.80;1.00;;;;;;5031986;28;20479;-65
2023/02/05 00:18:54;;;;;;;35.63;20.23;;;4.80;1.00;;;;;;5033030;28;20558;-65
2023/02/05 00:21:26;;;;;;;33.60;20.30;;;4.80;1.00;;;;;;5033407;28;20573;-65
2023/02/05 00:23:53;;;;;;;35.97;19.57;;;4.80;19.00;;;;;;5033664;28;20463;-65
2023/02/05 00:26:21;;;;;;;30.63;19.77;;;4.90;48.70;;;;;;5033139;28;20575;-65
2023/02/05 00:28:48;;;;;;;39.80;20.70;;;4.90;57.00;;;;;;5033784;28;20723;-65
2023/02/05 00:31:25;;;;;;;39.67;21.97;;;4.80;67.30;;;;;;5035319;28;20567;-65
2023/02/05 00:33:54;;;;;;;35.03;20.00;;;4.90;76.70;;;;;;5036919;28;20558;-65
2023/02/05 00:36:24;;;;;;;40.83;21.23;;;4.90;92.20;;;;;;5036358;28;20519;-65
2023/02/05 00:38:52;;;;;;;34.67;19.30;;;4.80;99.90;;;;;;5035914;28;20463;-65
2023/02/05 00:41:19;;;;;;;31.90;20.00;;;4.80;99.90;;;;;;5036941;28;20439;-65
2023/02/05 00:43:47;;;;;;;39.50;20.27;;;4.90;99.90;;;;;;5036894;28;20934;-65
2023/02/05 00:46:14;;;;;;;41.47;20.93;;;4.80;99.90;;;;;;5036771;28;20532;-65
2023/02/05 00:48:42;;;;;;;31.77;19.50;;;4.80;99.90;;;;;;5035865;28;20862;-65
2023/02/05 00:51:11;;;;;;;29.77;18.63;;;4.80;99.90;;;;;;5036348;28;20473;-65
2023/02/05 00:53:44;;;;;;;34.83;20.10;;;4.80;99.90;;;;;;5036038;28;20562;-66
2023/02/05 00:56:11;;;;;;;31.03;19.50;;;4.80;99.90;;;;;;5033791;28;20507;-66
2023/02/05 00:58:46;;;;;;;53.30;21.20;;;4.80;99.90;;;;;;5034893;28;20473;-66
2023/02/05 01:01:13;;;;;;;31.00;19.77;;;4.80;99.90;;;;;;5035741;28;20462;-66
2023/02/05 01:03:42;;;;;;;33.97;21.00;;;4.80;99.90;;;;;;5034418;28;20479;-66
2023/02/05 01:06:10;;;;;;;40.00;21.27;;;4.80;99.90;;;;;;5034929;28;20883;-67
2023/02/05 01:08:37;;;;;;;34.00;18.87;;;4.80;99.90;;;;;;5019068;28;20561;-67
2023/02/05 01:11:10;;;;;;;29.70;18.60;;;4.90;99.90;;;;;;5035592;28;20487;-67
2023/02/05 01:13:37;;;;;;;37.70;20.70;;;4.90;99.90;;;;;;5036591;28;20532;-67
2023/02/05 01:16:09;;;;;;;33.37;20.97;;;4.80;99.90;;;;;;5036474;28;20589;-67
2023/02/05 01:18:38;;;;;;;34.40;19.87;;;4.80;99.90;;;;;;5036053;28;20532;-67
2023/02/05 01:21:06;;;;;;;35.13;19.20;;;4.80;99.90;;;;;;5035612;28;20463;-67
2023/02/05 01:23:33;;;;;;;32.80;18.23;;;4.80;99.90;;;;;;5035950;28;20495;-67
2023/02/05 01:26:00;;;;;;;30.50;21.27;;;4.80;99.90;;;;;;5036156;28;20459;-67
2023/02/05 01:28:31;;;;;;;37.00;21.70;;;4.90;99.90;;;;;;5036493;28;20569;-67
2023/02/05 01:30:58;;;;;;;31.20;20.73;;;5.00;99.90;;;;;;5035128;28;20438;-68
2023/02/05 01:33:25;;;;;;;31.70;21.67;;;4.90;99.90;;;;;;5035537;28;20467;-67
2023/02/05 01:35:53;;;;;;;34.37;20.07;;;4.80;99.90;;;;;;5036099;28;20487;-67
2023/02/05 01:38:22;;;;;;;39.23;21.47;;;4.90;99.90;;;;;;5036104;28;20550;-68
2023/02/05 01:40:50;;;;;;;35.93;19.80;;;4.80;99.90;;;;;;5034456;28;20445;-68
2023/02/05 01:43:18;;;;;;;34.20;20.50;;;4.90;99.90;;;;;;5035507;28;20903;-67
2023/02/05 01:46:15;;;;;;;37.47;21.30;;;5.00;99.90;;;;;;5036136;28;20481;-67
2023/02/05 01:48:46;;;;;;;32.00;20.60;;;5.00;99.90;;;;;;5035496;28;20550;-67
2023/02/05 01:51:15;;;;;;;34.00;20.57;;;4.90;99.90;;;;;;5034914;28;20508;-67
2023/02/05 01:53:43;;;;;;;36.50;19.57;;;4.90;99.90;;;;;;5035725;28;20465;-67
2023/02/05 01:56:14;;;;;;;38.77;20.90;;;4.90;99.90;;;;;;5035155;28;20935;-67
2023/02/05 01:58:48;;;;;;;32.83;19.90;;;4.90;99.90;;;;;;5035825;28;20469;-67
2023/02/05 02:01:16;;;;;;;40.80;20.43;;;4.90;99.90;;;;;;5033966;28;20459;-67
2023/02/05 02:03:47;;;;;;;31.63;19.80;;;4.90;99.90;;;;;;5033657;28;20463;-67
2023/02/05 02:06:14;;;;;;;29.83;18.40;;;4.90;99.90;;;;;;5035771;28;20470;-66
2023/02/05 02:08:41;;;;;;;32.50;18.57;;;4.80;99.90;;;;;;5035402;28;20546;-66
2023/02/05 02:11:11;;;;;;;29.10;18.17;;;4.70;99.90;;;;;;5034863;28;20927;-66
2023/02/05 02:13:39;;;;;;;31.40;20.40;;;4.70;99.90;;;;;;5035372;28;20883;-66
2023/02/05 02:16:09;;;;;;;33.90;20.07;;;4.70;99.90;;;;;;5035034;28;20992;-66
2023/02/05 02:18:39;;;;;;;33.40;21.57;;;4.70;99.90;;;;;;5035445;28;20559;-64
2023/02/05 02:21:54;;;;;;;37.00;19.90;;;4.80;99.90;;;;;;5034876;28;20562;-64
2023/02/05 02:24:40;;;;;;;40.63;22.10;;;4.80;99.90;;;;;;5015695;28;20514;-65
2023/02/05 02:27:31;;;;;;;36.43;19.10;;;4.90;99.90;;;;;;5026276;28;20526;-66
2023/02/05 02:30:03;;;;;;;34.80;20.53;;;5.00;99.90;;;;;;5035113;28;20528;-66
2023/02/05 02:32:37;;;;;;;36.63;22.03;;;5.00;99.90;;;;;;5034568;28;20772;-65
2023/02/05 02:35:11;;;;;;;38.60;22.90;;;5.10;99.90;;;;;;5034845;28;20550;-65
2023/02/05 02:37:45;;;;;;;42.63;22.97;;;5.10;99.90;;;;;;5034583;28;20502;-65
2023/02/05 02:40:20;;;;;;;37.60;22.27;;;5.10;99.90;;;;;;5034420;28;20459;-65
2023/02/05 02:42:55;;;;;;;39.57;21.60;;;5.10;99.90;;;;;;5034765;28;20463;-65
2023/02/05 02:45:28;;;;;;;37.40;20.77;;;5.10;99.90;;;;;;5034270;28;20909;-65
2023/02/05 02:47:59;;;;;;;32.43;19.63;;;5.10;99.90;;;;;;5035163;28;20459;-65
2023/02/05 02:50:31;;;;;;;37.63;21.83;;;5.00;99.90;;;;;;5034494;28;20536;-65
2023/02/05 02:53:04;;;;;;;41.23;22.07;;;5.00;99.90;;;;;;5033742;28;20909;-65
2023/02/05 02:55:36;;;;;;;37.57;20.13;;;5.10;99.90;;;;;;5014557;28;20501;-65
2023/02/05 02:58:07;;;;;;;34.53;19.97;;;5.10;99.90;;;;;;5021956;28;20467;-65
2023/02/05 03:00:36;;;;;;;36.80;21.30;;;5.10;99.90;;;;;;5035080;28;20441;-65
2023/02/05 03:03:06;;;;;;;38.03;19.83;;;5.00;99.90;;;;;;5034585;28;20560;-65
2023/02/05 03:05:35;;;;;;;43.60;21.03;;;5.00;99.90;;;;;;5033647;28;20498;-65
2023/02/05 03:08:07;;;;;;;38.03;19.73;;;5.10;99.90;;;;;;5034734;28;20438;-65
2023/02/05 03:10:41;;;;;;;42.10;22.23;;;5.10;99.90;;;;;;5017129;28;20555;-65
2023/02/05 03:13:11;;;;;;;35.77;20.70;;;5.10;99.90;;;;;;5017900;28;20476;-65
2023/02/05 03:15:41;;;;;;;46.50;24.90;;;5.10;99.90;;;;;;5029736;28;20470;-65
2023/02/05 03:18:08;;;;;;;49.13;24.70;;;5.10;99.90;;;;;;5034199;28;20471;-65
2023/02/05 03:20:41;;;;;;;30.93;20.53;;;5.20;99.90;;;;;;5034437;28;20467;-65
2023/02/05 03:23:08;;;;;;;34.57;21.17;;;5.10;99.90;;;;;;5034189;28;20770;-65
2023/02/05 03:25:35;;;;;;;38.80;21.03;;;5.10;99.90;;;;;;5033556;28;20876;-65
2023/02/05 03:28:03;;;;;;;35.97;21.07;;;5.00;99.90;;;;;;5034235;28;20465;-65
2023/02/05 03:30:41;;;;;;;40.37;21.80;;;5.10;99.90;;;;;;5034145;28;20447;-65
2023/02/05 03:33:21;;;;;;;40.63;21.40;;;5.10;99.90;;;;;;5034111;28;20738;-65
2023/02/05 03:35:58;;;;;;;35.23;20.20;;;5.10;99.90;;;;;;5033157;28;20891;-65
2023/02/05 03:38:38;;;;;;;37.90;21.23;;;5.10;99.90;;;;;;5033469;28;20462;-65
2023/02/05 03:41:15;;;;;;;39.10;23.23;;;5.10;99.90;;;;;;5033551;28;20437;-65
2023/02/05 03:43:54;;;;;;;36.83;20.70;;;5.10;99.90;;;;;;5034279;28;20463;-65
2023/02/05 03:46:32;;;;;;;39.67;21.17;;;5.10;99.90;;;;;;5033548;28;20459;-65
2023/02/05 03:49:12;;;;;;;44.53;23.50;;;5.20;99.90;;;;;;5033619;28;20474;-65
2023/02/05 03:51:46;;;;;;;42.00;22.00;;;5.20;99.90;;;;;;5033638;28;20448;-65
2023/02/05 03:54:20;;;;;;;43.50;22.37;;;5.20;99.90;;;;;;5034156;28;20473;-65
2023/02/05 03:56:54;;;;;;;40.43;20.60;;;5.20;99.90;;;;;;5032413;28;20499;-64
2023/02/05 03:59:23;;;;;;;44.23;22.77;;;5.20;99.90;;;;;;5033616;28;20470;-65
2023/02/05 04:01:52;;;;;;;47.83;23.80;;;5.20;99.90;;;;;;5033908;28;20442;-65
2023/02/05 04:04:19;;;;;;;44.57;23.30;;;5.30;99.90;;;;;;5033899;28;20463;-65
2023/02/05 04:06:47;;;;;;;51.27;25.00;;;5.30;99.90;;;;;;5036771;28;20493;-65
2023/02/05 04:09:15;;;;;;;50.30;26.00;;;5.30;99.90;;;;;;5036858;28;20474;-65
2023/02/05 04:11:42;;;;;;;53.00;25.50;;;5.30;99.90;;;;;;5036903;28;20463;-65
2023/02/05 04:14:09;;;;;;;41.47;24.10;;;5.30;99.90;;;;;;5037470;28;20437;-65
2023/02/05 04:16:36;;;;;;;50.10;23.97;;;5.30;99.90;;;;;;5037084;28;20513;-65
2023/02/05 04:19:05;;;;;;;57.47;23.67;;;5.30;99.90;;;;;;5037492;28;20772;-65
2023/02/05 04:21:32;;;;;;;55.07;22.93;;;5.40;99.90;;;;;;5036822;28;20460;-65
2023/02/05 04:23:59;;;;;;;49.63;24.93;;;5.40;99.90;;;;;;5037355;28;20467;-65
2023/02/05 04:26:26;;;;;;;45.00;23.37;;;5.30;99.90;;;;;;5037487;28;20433;-63
2023/02/05 04:28:53;;;;;;;52.97;25.37;;;5.40;99.90;;;;;;5036265;28;20467;-65
2023/02/05 04:31:21;;;;;;;51.80;27.07;;;5.30;99.90;;;;;;5036503;28;20510;-65
2023/02/05 04:33:48;;;;;;;65.83;27.77;;;5.40;99.90;;;;;;5037239;28;20565;-65
2023/02/05 04:36:16;;;;;;;57.80;26.23;;;5.40;99.90;;;;;;5037215;28;20558;-65
2023/02/05 04:38:44;;;;;;;58.50;27.70;;;5.40;99.90;;;;;;5035838;28;20466;-65
2023/02/05 04:41:11;;;;;;;49.93;26.03;;;5.40;99.90;;;;;;5035859;28;20592;-64
2023/02/05 04:43:38;;;;;;;53.10;27.57;;;5.50;99.90;;;;;;5036348;28;20562;-62
2023/02/05 04:46:06;;;;;;;48.57;24.37;;;5.50;99.90;;;;;;5037120;28;20473;-62
2023/02/05 04:48:33;;;;;;;60.37;26.10;;;5.50;99.90;;;;;;5036446;28;20442;-63
2023/02/05 04:51:00;;;;;;;46.23;25.27;;;5.50;99.90;;;;;;5036296;28;20464;-64
2023/02/05 04:53:29;;;;;;;52.53;27.23;;;5.50;99.90;;;;;;5035439;28;20463;-64
2023/02/05 04:56:05;;;;;;;55.60;28.17;;;5.50;99.90;;;;;;5036719;28;20792;-65
2023/02/05 04:58:32;;;;;;;59.97;28.40;;;5.60;99.90;;;;;;5034992;28;20467;-64
2023/02/05 05:00:59;;;;;;;51.07;26.83;;;5.60;99.90;;;;;;5035893;28;20440;-65
2023/02/05 05:03:26;;;;;;;44.57;24.80;;;5.60;99.90;;;;;;5036266;28;20545;-66
2023/02/05 05:05:53;;;;;;;36.93;20.70;;;5.60;99.90;;;;;;5036944;28;20481;-66
2023/02/05 05:08:21;;;;;;;44.53;21.40;;;5.60;99.90;;;;;;5036917;28;20459;-66
2023/02/05 05:10:49;;;;;;;38.53;21.63;;;5.60;99.90;;;;;;5036447;28;20520;-66
2023/02/05 05:13:16;;;;;;;29.70;18.17;;;5.60;99.90;;;;;;5036472;28;20554;-66
2023/02/05 05:15:44;;;;;;;39.77;19.87;;;5.60;99.90;;;;;;5035700;28;20446;-67
2023/02/05 05:18:11;;;;;;;28.63;17.30;;;5.70;99.90;;;;;;5036565;28;20495;-67
2023/02/05 05:20:38;;;;;;;24.27;15.57;;;5.70;99.90;;;;;;5036225;28;20463;-67
2023/02/05 05:23:05;;;;;;;30.23;14.80;;;5.70;99.90;;;;;;5035967;28;20532;-66
2023/02/05 05:25:32;;;;;;;25.57;13.30;;;5.60;99.90;;;;;;5036517;28;20463;-65
2023/02/05 05:28:01;;;;;;;22.27;13.33;;;5.60;99.90;;;;;;5035769;28;20462;-65
2023/02/05 05:30:28;;;;;;;22.10;13.97;;;5.60;99.90;;;;;;5035573;28;20431;-65
2023/02/05 05:32:55;;;;;;;21.30;13.27;;;5.60;99.90;;;;;;5036272;28;20467;-65
2023/02/05 05:35:22;;;;;;;23.73;13.10;;;5.60;99.90;;;;;;5035666;28;20760;-65
2023/02/05 05:37:49;;;;;;;19.97;13.80;;;5.60;99.90;;;;;;5035906;28;20581;-65
2023/02/05 05:45:48;;;;;;;25.30;15.60;;;5.60;99.90;;;;;;5035523;28;20755;-65
2023/02/05 05:48:15;;;;;;;24.13;14.80;;;5.70;99.90;;;;;;5036029;28;20481;-65
2023/02/05 05:50:42;;;;;;;23.03;16.07;;;5.80;99.90;;;;;;5035455;28;20442;-65
2023/02/05 05:53:09;;;;;;;26.27;15.53;;;5.80;99.90;;;;;;5035415;28;20834;-65
2023/02/05 05:55:36;;;;;;;27.77;15.83;;;5.70;99.90;;;;;;5035032;28;20937;-65
2023/02/05 05:58:05;;;;;;;28.77;15.50;;;5.70;99.90;;;;;;5035571;28;20495;-65
2023/02/05 06:00:32;;;;;;;24.30;15.87;;;5.80;99.90;;;;;;5035178;28;20457;-65
2023/02/05 06:03:00;;;;;;;30.10;17.10;;;5.70;99.90;;;;;;5035225;28;20458;-65
2023/02/05 06:05:27;;;;;;;25.73;16.73;;;5.70;99.90;;;;;;5035249;28;20528;-65
2023/02/05 06:07:54;;;;;;;25.30;17.70;;;5.70;99.90;;;;;;5035522;28;20440;-65
2023/02/05 06:10:21;;;;;;;26.37;17.20;;;5.70;99.90;;;;;;5035420;28;20459;-64
2023/02/05 06:12:49;;;;;;;30.33;18.57;;;5.80;99.90;;;;;;5035021;28;20465;-65
2023/02/05 06:15:18;;;;;;;34.60;18.70;;;5.80;99.90;;;;;;5035736;28;20465;-66
2023/02/05 06:17:48;;;;;;;33.50;19.73;;;5.80;99.90;;;;;;5035448;28;20474;-66
2023/02/05 06:20:15;;;;;;;33.17;19.03;;;5.80;99.90;;;;;;5035806;28;20768;-65
2023/02/05 06:22:42;;;;;;;30.17;19.57;;;5.80;99.90;;;;;;5034916;28;20464;-65
2023/02/05 06:25:09;;;;;;;28.63;20.17;;;5.80;99.90;;;;;;5034979;28;20525;-65
2023/02/05 06:27:36;;;;;;;32.03;20.50;;;5.80;99.90;;;;;;5034422;28;20474;-65
2023/02/05 06:30:04;;;;;;;36.23;20.93;;;5.80;99.90;;;;;;5034957;28;20463;-66
2023/02/05 06:32:33;;;;;;;39.57;20.30;;;5.90;99.90;;;;;;5034923;28;20465;-66
2023/02/05 06:35:00;;;;;;;35.80;22.10;;;5.90;99.90;;;;;;5035214;28;20552;-66
2023/02/05 06:37:28;;;;;;;38.27;22.67;;;5.90;99.90;;;;;;5034623;28;21207;-66
2023/02/05 06:39:55;;;;;;;39.33;24.30;;;5.90;99.90;;;;;;5033917;28;20449;-65
2023/02/05 06:42:23;;;;;;;44.80;25.40;;;5.90;99.90;;;;;;5034782;28;20467;-65
2023/02/05 06:44:50;;;;;;;43.17;25.30;;;5.90;99.90;;;;;;5034770;28;20558;-65
2023/02/05 06:47:17;;;;;;;46.37;25.77;;;5.90;99.90;;;;;;5035037;28;20445;-65
2023/02/05 06:49:45;;;;;;;47.50;28.10;;;6.00;99.90;;;;;;5034970;28;20499;-65
2023/02/05 06:52:13;;;;;;;57.00;28.10;;;6.00;99.90;;;;;;5035542;28;20501;-67
2023/02/05 06:54:42;;;;;;;52.47;29.67;;;6.00;99.90;;;;;;5034442;28;20466;-68
2023/02/05 06:57:09;;;;;;;53.67;31.17;;;6.00;99.90;;;;;;5034764;28;21014;-67
2023/02/05 06:59:36;;;;;;;52.70;29.90;;;6.00;99.90;;;;;;5034392;28;20463;-67
2023/02/05 07:02:03;;;;;;;58.93;30.03;;;6.00;99.90;;;;;;5035329;28;20467;-68
2023/02/05 07:04:31;;;;;;;56.27;33.87;;;6.10;99.90;;;;;;5033959;28;20469;-67
2023/02/05 07:06:59;;;;;;;71.27;35.77;;;6.00;99.90;;;;;;5034252;28;20554;-68
2023/02/05 07:09:27;;;;;;;67.80;35.20;;;6.00;99.90;;;;;;5034483;28;20469;-69
2023/02/05 07:11:54;;;;;;;61.43;36.03;;;6.00;99.90;;;;;;5034895;28;20463;-68
2023/02/05 07:14:21;;;;;;;66.33;31.80;;;6.00;99.90;;;;;;5034308;28;20506;-67
2023/02/05 07:16:49;;;;;;;68.33;36.27;;;6.00;99.90;;;;;;5034065;28;20465;-68
2023/02/05 07:19:16;;;;;;;61.43;36.63;;;6.10;99.90;;;;;;5034582;28;20477;-68
2023/02/05 07:21:44;;;;;;;58.23;33.53;;;6.10;99.90;;;;;;5034872;28;20469;-67
2023/02/05 07:24:12;;;;;;;70.30;35.57;;;6.10;99.90;;;;;;5034294;28;20550;-68
2023/02/05 07:26:41;;;;;;;60.53;32.23;;;6.10;99.90;;;;;;5034453;28;20463;-68
2023/02/05 07:29:08;;;;;;;61.57;33.27;;;6.10;99.90;;;;;;5033944;28;20463;-67
2023/02/05 07:31:36;;;;;;;58.13;32.57;;;6.10;99.90;;;;;;5034313;28;20463;-67
2023/02/05 07:34:03;;;;;;;53.60;33.50;;;6.10;99.90;;;;;;5034553;28;20474;-67
2023/02/05 07:36:30;;;;;;;54.17;31.40;;;6.10;99.90;;;;;;5033909;28;20442;-67
2023/02/05 07:38:57;;;;;;;58.47;33.20;;;6.10;99.90;;;;;;5015727;28;20501;-67
2023/02/05 07:41:26;;;;;;;48.70;27.03;;;6.10;99.90;;;;;;5023894;28;20560;-68
2023/02/05 07:43:54;;;;;;;47.97;27.00;;;6.10;99.90;;;;;;5041162;28;20803;-68
2023/02/05 07:46:22;;;;;;;40.67;26.60;;;6.10;99.90;;;;;;5040399;28;20459;-67
2023/02/05 07:48:49;;;;;;;41.43;27.03;;;6.00;99.90;;;;;;5040348;28;20453;-67
2023/02/05 07:51:18;;;;;;;41.13;25.40;;;6.10;99.90;;;;;;5040220;28;20458;-67
2023/02/05 07:53:45;;;;;;;41.43;25.53;;;6.10;99.90;;;;;;5039795;28;20484;-68
2023/02/05 07:56:14;;;;;;;39.13;23.50;;;6.10;99.90;;;;;;5039547;28;21037;-68
2023/02/05 07:58:43;;;;;;;41.90;24.77;;;6.10;99.90;;;;;;5040497;28;20478;-68
2023/02/05 08:01:10;;;;;;;38.80;25.63;;;6.10;99.90;;;;;;5039439;28;20459;-68
2023/02/05 08:03:37;;;;;;;38.50;25.40;;;6.10;99.90;;;;;;5039290;28;20463;-67
2023/02/05 08:06:05;;;;;;;37.10;23.53;;;6.10;99.90;;;;;;5040087;28;20451;-66
2023/02/05 08:08:33;;;;;;;32.23;23.30;;;6.10;99.90;;;;;;5039182;28;20538;-68
2023/02/05 08:11:04;;;;;;;33.37;21.97;;;6.10;99.90;;;;;;5039085;28;20463;-68
2023/02/05 08:13:31;;;;;;;30.37;20.40;;;6.10;99.90;;;;;;5037872;28;20459;-68
2023/02/05 08:16:04;;;;;;;35.70;22.10;;;6.10;99.90;;;;;;5037856;28;20459;-68
2023/02/05 08:18:31;;;;;;;26.60;18.90;;;6.00;99.90;;;;;;5036470;28;20581;-68
2023/02/05 08:20:58;;;;;;;30.97;20.10;;;6.00;99.90;;;;;;5038163;28;20485;-67
2023/02/05 08:23:25;;;;;;;25.00;18.70;;;5.90;99.90;;;;;;5038832;28;20456;-67
2023/02/05 08:25:54;;;;;;;19.73;17.07;;;6.00;99.90;;;;;;5040086;28;20458;-67
2023/02/05 08:28:21;;;;;;;19.90;15.03;;;6.00;99.90;;;;;;5040145;28;20463;-68
2023/02/05 08:30:49;;;;;;;21.97;15.70;;;5.90;99.90;;;;;;5040487;28;20466;-67
2023/02/05 08:33:17;;;;;;;23.33;16.80;;;5.90;99.90;;;;;;5039692;28;20463;-68
2023/02/05 08:35:44;;;;;;;22.70;16.00;;;5.80;99.90;;;;;;5023716;28;20537;-68
2023/02/05 08:38:12;;;;;;;23.57;17.27;;;5.90;99.90;;;;;;5039803;28;20494;-67
2023/02/05 08:40:39;;;;;;;23.87;17.30;;;5.80;99.90;;;;;;5039530;28;20470;-66
2023/02/05 08:43:07;;;;;;;26.67;19.27;;;5.80;99.90;;;;;;5039693;28;20467;-66
2023/02/05 08:45:34;;;;;;;24.50;17.23;;;5.80;99.90;;;;;;5039288;28;20467;-66
2023/02/05 08:48:02;;;;;;;24.70;18.50;;;5.90;99.90;;;;;;5039942;28;20782;-66
2023/02/05 08:50:30;;;;;;;24.23;16.67;;;5.90;99.90;;;;;;5019296;28;20460;-66
2023/02/05 08:52:58;;;;;;;23.43;17.30;;;5.80;99.90;;;;;;5016589;28;20468;-66
2023/02/05 08:55:26;;;;;;;18.47;14.60;;;5.90;99.90;;;;;;5025089;28;20502;-68
2023/02/05 08:57:53;;;;;;;19.10;14.83;;;5.80;99.90;;;;;;5036443;28;20498;-69
2023/02/05 09:00:21;;;;;;;16.50;13.33;;;5.80;99.90;;;;;;5036597;28;20467;-68
2023/02/05 09:02:51;;;;;;;15.57;11.97;;;5.80;99.90;;;;;;5037091;28;20460;-68
2023/02/05 09:05:18;;;;;;;18.67;13.27;;;5.80;99.90;;;;;;5035903;28;20481;-67
2023/02/05 09:07:47;;;;;;;14.37;11.60;;;5.70;99.90;;;;;;5036153;28;20466;-68
2023/02/05 09:10:14;;;;;;;8.70;7.60;;;5.60;99.90;;;;;;5036097;28;20553;-67
2023/02/05 09:12:41;;;;;;;10.00;8.43;;;5.50;99.90;;;;;;5036809;28;20563;-68
2023/02/05 09:15:12;;;;;;;11.80;8.10;;;5.50;99.90;;;;;;5036141;28;20532;-68
2023/02/05 09:17:40;;;;;;;8.03;6.13;;;5.40;99.90;;;;;;5036010;28;20499;-67
2023/02/05 09:20:09;;;;;;;6.50;5.60;;;5.30;99.90;;;;;;5036416;28;20468;-68
2023/02/05 09:22:39;;;;;;;5.77;5.10;;;5.30;99.90;;;;;;5035918;28;20463;-66
2023/02/05 09:25:08;;;;;;;5.50;5.00;;;5.20;99.90;;;;;;5035039;28;20538;-65
2023/02/05 09:27:40;;;;;;;6.00;5.10;;;5.20;99.90;;;;;;5035311;28;20462;-65
2023/02/05 09:30:11;;;;;;;6.03;5.03;;;5.20;99.90;;;;;;5035499;28;20887;-65
2023/02/05 09:32:40;;;;;;;6.27;4.80;;;5.20;99.90;;;;;;5032740;28;20760;-65
2023/02/05 09:35:07;;;;;;;8.67;4.60;;;5.20;99.90;;;;;;5035201;28;20477;-63
2023/02/05 09:37:34;;;;;;;5.10;4.60;;;5.10;99.90;;;;;;5034846;28;20425;-65
2023/02/05 09:40:03;;;;;;;6.40;4.70;;;5.20;99.90;;;;;;5034366;28;20463;-65
2023/02/05 09:42:38;;;;;;;6.60;4.50;;;5.20;99.90;;;;;;5035313;28;20463;-65
2023/02/05 09:45:21;;;;;;;6.80;5.30;;;5.20;99.90;;;;;;5035779;28;20970;-65
2023/02/05 09:47:57;;;;;;;4.47;3.60;;;5.30;99.90;;;;;;5035737;28;20467;-65
2023/02/05 09:50:28;;;;;;;4.00;3.60;;;5.20;99.90;;;;;;5035967;28;20463;-65
2023/02/05 09:53:03;;;;;;;5.20;3.67;;;5.20;99.90;;;;;;5035314;28;20471;-65
2023/02/05 09:55:36;;;;;;;3.40;3.10;;;5.20;99.90;;;;;;5035424;28;20527;-65
2023/02/05 09:58:15;;;;;;;6.47;3.40;;;5.30;99.90;;;;;;5035331;28;20531;-65
2023/02/05 10:00:52;;;;;;;4.83;3.90;;;5.20;99.90;;;;;;5035945;28;20954;-67
2023/02/05 10:03:29;;;;;;;4.63;2.90;;;5.30;99.90;;;;;;5033017;28;20467;-66
2023/02/05 10:06:17;;;;;;;5.57;3.40;;;5.30;99.90;;;;;;5035514;28;20474;-66
2023/02/05 10:08:53;;;;;;;3.97;3.00;;;5.30;99.90;;;;;;5035957;28;20495;-66
2023/02/05 10:11:32;;;;;;;3.30;2.87;;;5.30;99.90;;;;;;5035688;28;20437;-66
2023/02/05 10:14:09;;;;;;;3.90;3.00;;;5.20;99.90;;;;;;5034953;28;20550;-65
2023/02/05 10:17:06;;;;;;;4.77;3.60;;;5.10;99.90;;;;;;5036136;28;20509;-65
2023/02/05 10:19:58;;;;;;;4.70;4.20;;;5.10;99.90;;;;;;5029843;27;20531;-65
2023/02/05 10:22:28;;;;;;;4.93;3.90;;;5.20;99.90;;;;;;5035682;28;20459;-65
2023/02/05 10:25:17;;;;;;;6.27;4.50;;;5.30;99.90;;;;;;5032962;28;20459;-65
2023/02/05 10:27:53;;;;;;;5.83;4.93;;;5.30;99.90;;;;;;5011953;28;20820;-65
2023/02/05 10:30:30;;;;;;;5.40;4.70;;;5.30;99.90;;;;;;5015614;28;20557;-65
2023/02/05 10:32:59;;;;;;;6.13;5.17;;;5.40;99.90;;;;;;5014881;28;20466;-65
2023/02/05 10:35:32;;;;;;;6.10;5.30;;;5.30;99.90;;;;;;5027020;28;20521;-67
2023/02/05 10:38:00;;;;;;;4.80;3.20;;;5.30;99.90;;;;;;5034735;28;20467;-67
2023/02/05 10:40:30;;;;;;;4.30;3.10;;;5.30;99.90;;;;;;5033464;28;20553;-68
2023/02/05 10:43:05;;;;;;;6.27;2.80;;;5.30;99.90;;;;;;5035264;28;20832;-67
2023/02/05 10:45:34;;;;;;;3.77;2.83;;;5.30;99.90;;;;;;5034270;28;20498;-67
2023/02/05 10:48:21;;;;;;;4.10;2.73;;;5.40;99.90;;;;;;5033217;28;20460;-67
2023/02/05 10:50:57;;;;;;;4.13;3.00;;;5.50;99.90;;;;;;5034860;28;21193;-67
2023/02/05 10:53:26;;;;;;;3.30;2.53;;;5.50;99.90;;;;;;5033494;28;20917;-67
2023/02/05 10:55:58;;;;;;;4.43;2.93;;;5.50;99.90;;;;;;5033921;28;20867;-68
2023/02/05 10:58:41;;;;;;;3.67;3.30;;;5.40;99.90;;;;;;5034501;28;20497;-68
2023/02/05 11:01:19;;;;;;;3.80;3.40;;;5.40;99.90;;;;;;5034131;28;20555;-68
2023/02/05 11:03:57;;;;;;;7.57;3.57;;;5.40;99.90;;;;;;5035416;28;20470;-68
2023/02/05 11:06:28;;;;;;;5.63;3.53;;;5.50;99.90;;;;;;5031243;28;20917;-67
2023/02/05 11:08:58;;;;;;;4.43;3.20;;;5.60;99.90;;;;;;5032523;28;20573;-67
2023/02/05 11:11:31;;;;;;;5.40;3.73;;;5.50;99.90;;;;;;5033461;28;20903;-68
2023/02/05 11:14:01;;;;;;;5.37;3.80;;;5.50;99.90;;;;;;5033098;28;20528;-67
2023/02/05 11:16:38;;;;;;;8.10;5.20;;;5.50;99.90;;;;;;5033604;28;20495;-67
2023/02/05 11:19:20;;;;;;;5.97;4.67;;;5.50;99.90;;;;;;5016209;28;20479;-66
2023/02/05 11:21:50;;;;;;;5.20;4.37;;;5.50;99.90;;;;;;5031860;28;20467;-68
2023/02/05 11:24:35;;;;;;;6.70;4.20;;;5.60;99.90;;;;;;5033385;28;20467;-68
2023/02/05 11:27:43;;;;;;;5.53;3.33;;;5.60;99.90;;;;;;5033201;28;20772;-68
2023/02/05 11:30:31;;;;;;;5.80;3.40;;;5.50;99.90;;;;;;5032336;28;20570;-68
2023/02/05 11:33:15;;;;;;;4.23;3.83;;;5.50;99.90;;;;;;5033174;28;20475;-68
2023/02/05 11:35:54;;;;;;;7.00;3.83;;;5.60;99.90;;;;;;5033879;28;20788;-68
2023/02/05 11:38:29;;;;;;;3.43;3.00;;;5.60;99.90;;;;;;5034229;28;20459;-68
2023/02/05 11:41:01;;;;;;;3.57;2.90;;;5.60;99.90;;;;;;5033624;28;20475;-68
2023/02/05 11:43:34;;;;;;;4.97;3.27;;;5.70;99.90;;;;;;5032141;28;20540;-69
2023/02/05 11:46:06;;;;;;;3.53;2.43;;;5.60;99.90;;;;;;5032042;28;20479;-68
2023/02/05 11:48:48;;;;;;;4.70;2.50;;;5.60;99.90;;;;;;5030316;28;20438;-68
2023/02/05 11:51:29;;;;;;;3.87;3.23;;;5.60;99.90;;;;;;5032939;28;20463;-69
2023/02/05 11:54:08;;;;;;;3.50;3.20;;;5.60;99.90;;;;;;5032485;27;20520;-68
2023/02/05 11:56:36;;;;;;;5.23;3.77;;;5.70;99.90;;;;;;5026991;28;20501;-68
2023/02/05 11:59:07;;;;;;;3.07;2.77;;;5.70;99.90;;;;;;5032421;28;20491;-68
2023/02/05 12:01:36;;;;;;;3.20;2.37;;;5.80;99.90;;;;;;5031606;28;20503;-69
2023/02/05 12:04:33;;;;;;;4.00;2.70;;;5.70;99.90;;;;;;5032846;28;20485;-69
2023/02/05 12:07:11;;;;;;;3.50;3.20;;;5.70;99.90;;;;;;5032512;28;20470;-68
2023/02/05 12:09:43;;;;;;;4.67;3.10;;;5.60;99.90;;;;;;5027254;28;20469;-67
2023/02/05 12:12:20;;;;;;;4.67;3.40;;;5.60;99.90;;;;;;5022358;28;20463;-69
2023/02/05 12:14:58;;;;;;;3.23;2.90;;;5.60;99.90;;;;;;5065182;28;20915;-68
2023/02/05 12:17:40;;;;;;;4.03;3.00;;;5.50;99.90;;;;;;5029953;28;20524;-69
2023/02/05 12:20:21;;;;;;;4.97;3.60;;;5.60;99.90;;;;;;5029501;28;21042;-68
2023/02/05 12:23:32;;;;;;;5.40;3.20;;;5.60;99.90;;;;;;5026409;28;20566;-68
2023/02/05 12:26:16;;;;;;;5.27;3.53;;;5.50;99.90;;;;;;5025214;28;20463;-68
2023/02/05 12:28:53;;;;;;;4.73;3.80;;;5.60;99.90;;;;;;5033522;28;20550;-69
2023/02/05 12:31:37;;;;;;;4.93;3.50;;;5.60;99.90;;;;;;5033823;28;20498;-69
2023/02/05 12:34:28;;;;;;;5.87;4.20;;;5.50;99.90;;;;;;5032005;28;20442;-70
2023/02/05 12:37:29;;;;;;;4.30;3.90;;;5.50;99.90;;;;;;5034458;28;20535;-69
2023/02/05 12:40:09;;;;;;;4.40;3.80;;;5.60;99.90;;;;;;5027030;28;20581;-69
2023/02/05 12:42:40;;;;;;;4.93;4.43;;;5.50;99.90;;;;;;5032746;28;20470;-69
2023/02/05 12:45:27;;;;;;;5.77;3.80;;;5.50;99.90;;;;;;5033745;28;20562;-67
2023/02/05 12:48:08;;;;;;;5.27;4.20;;;5.50;99.90;;;;;;5033930;28;20876;-68
2023/02/05 12:50:52;;;;;;;5.70;5.10;;;5.60;99.90;;;;;;5034330;28;20554;-68
2023/02/05 12:53:40;;;;;;;6.83;4.80;;;5.50;99.90;;;;;;5029356;28;20776;-67
2023/02/05 12:56:26;;;;;;;5.17;4.67;;;5.50;99.90;;;;;;5031962;28;20487;-68
2023/02/05 12:59:03;;;;;;;5.13;4.63;;;5.50;99.90;;;;;;5031953;28;20516;-68
2023/02/05 13:01:38;;;;;;;5.17;4.50;;;5.60;99.90;;;;;;5032884;28;20467;-68
2023/02/05 13:04:11;;;;;;;5.93;5.43;;;5.50;99.90;;;;;;5032464;28;20785;-69
2023/02/05 13:06:53;;;;;;;4.53;4.10;;;5.60;99.90;;;;;;5087208;27;20463;-70
2023/02/05 13:09:33;;;;;;;5.97;4.10;;;5.50;99.90;;;;;;5032325;28;20438;-69
2023/02/05 13:12:06;;;;;;;4.30;3.70;;;5.50;99.90;;;;;;5036314;28;20469;-67